Airfield :
LOGIN :

Register | Disclaimer

   EN    FR    IT 

 










Legend :    VFR   Marginal VFR   IFR   Intensive IFR   Very Intensive IFR
Visi :
Ceiling :
>= 8 km
>= 3000ft
5 to 8 km
1000 to 3000 ft
1500m to 5 km
500 to 1000 ft
800 to 1500m
200 to 500 ft
< 800m
< 200 ft
Symbols :   Thunderstorms  Fog  Heavy snow  Heavy precipitations  Wind > 20 kt
SIGMETs :     Misc.  Thunderstorms  Icing  Turbulence  Mountain Waves  Volcanic Ashes






- Airport Elevation : 142 ft
- IATA code : FLR


LIRQ - Firenze Amerigo Vespucci

CURRENT METAR :
  • 221250Z 25007KT 200V320 CAVOK 27/14 Q1013

EXPIRED METARs :
  • 221220Z 26007KT 180V330 CAVOK 26/14 Q1013
  • 221150Z 29007KT 240V330 CAVOK 26/15 Q1014
  • 221120Z 24007KT 180V310 CAVOK 27/14 Q1014
  • 221050Z VRB03KT CAVOK 25/15 Q1014
  • 221020Z VRB03KT CAVOK 25/16 Q1015

TAF TAF LIRQ
Valid from the 22 at 12:00 until the 23 at 12:00 UTC


221100Z 2212/2312 24010KT 9999 SCT025
BECMG 2217/2219 VRB04KT
TEMPO 2300/2305 BKN010
BECMG 2309/2311 24010KT



MET'MAP, your aeronautical weather chart ! - Copyright ORBIFLY December 2007 - Disclaimer

ORBIFLY MET'MAP TEAM :

Programming & Development : Alexandra Zaïnal
Original concept : Baudouin d'Aumeries
Technical & hardware support : Manuel Goepfert
Assistance : Marc-Olivier Méhu

Contact : metmap@orbifly.com




SOURCES & CREDITS :

   NOAA